createdAt,value
2022-09-15T00:10:53.137Z,35
2022-09-15T00:27:27.002Z,34
2022-09-15T00:44:01.463Z,34
2022-09-15T01:00:36.703Z,34
2022-09-15T01:17:11.988Z,33
2022-09-15T01:33:45.604Z,34
2022-09-15T01:50:19.155Z,34
2022-09-15T02:06:53.037Z,34
2022-09-15T02:23:22.724Z,33
2022-09-15T02:39:56.663Z,33
2022-09-15T02:56:30.347Z,33
2022-09-15T03:13:03.725Z,34
2022-09-15T03:29:38.258Z,34
2022-09-15T03:46:12.899Z,34
2022-09-15T04:02:46.872Z,36
2022-09-15T04:19:21.606Z,34
2022-09-15T04:35:55.440Z,36
2022-09-15T04:52:29.447Z,38
2022-09-15T05:09:09.013Z,39
2022-09-15T05:25:37.040Z,40
2022-09-15T05:42:11.804Z,42
2022-09-15T05:58:46.208Z,43
2022-09-15T06:15:15.488Z,45
2022-09-15T06:31:50.370Z,46
2022-09-15T06:48:25.337Z,49
2022-09-15T07:04:59.368Z,50
2022-09-15T07:21:33.557Z,52
2022-09-15T07:38:08.848Z,53
2022-09-15T07:54:42.502Z,56
2022-09-15T08:11:18.860Z,56
2022-09-15T08:27:51.742Z,57
2022-09-15T08:44:27.541Z,58
2022-09-15T09:01:03.300Z,58
2022-09-15T09:17:39.028Z,58
2022-09-15T09:34:14.414Z,59
2022-09-15T09:50:49.232Z,60
2022-09-15T10:07:25.044Z,60
2022-09-15T10:24:00.249Z,58
2022-09-15T10:40:31.395Z,58
2022-09-15T10:57:06.472Z,59
2022-09-15T11:13:43.329Z,60
2022-09-15T11:30:19.902Z,58
2022-09-15T11:46:55.902Z,60
2022-09-15T12:03:32.292Z,60
2022-09-15T12:36:39.949Z,60
2022-09-15T12:53:11.215Z,61
2022-09-15T13:09:47.686Z,67
2022-09-15T13:26:24.476Z,60
2022-09-15T13:42:59.746Z,64
2022-09-15T13:59:35.840Z,59
2022-09-15T14:16:12.875Z,59
2022-09-15T14:32:49.587Z,58
2022-09-15T14:49:25.940Z,59
2022-09-15T15:06:12.707Z,57
2022-09-15T15:22:36.926Z,57
2022-09-15T15:39:11.864Z,57
2022-09-15T15:55:47.845Z,57
2022-09-15T16:12:23.969Z,55
2022-09-15T16:28:59.429Z,55
2022-09-15T16:45:29.665Z,55
2022-09-15T17:02:04.555Z,52
2022-09-15T17:18:40.057Z,54
2022-09-15T17:35:15.326Z,54
2022-09-15T17:51:50.309Z,53
2022-09-15T18:08:25.631Z,53
2022-09-15T18:24:59.874Z,53
2022-09-15T19:14:46.788Z,47
2022-09-15T19:31:21.232Z,49
2022-09-15T19:47:55.160Z,49
2022-09-15T20:21:04.229Z,51
2022-09-15T20:37:37.556Z,51
2022-09-15T21:10:43.634Z,50
2022-09-15T21:27:17.516Z,49
2022-09-15T22:00:21.104Z,48
2022-09-15T22:16:56.144Z,47
2022-09-15T23:39:49.333Z,45
